createdAt,value
2022-12-11T00:03:26.401Z,19.91
2022-12-11T00:13:29.601Z,19.90
2022-12-11T00:23:32.805Z,19.90
2022-12-11T00:33:35.954Z,19.88
2022-12-11T00:43:39.147Z,19.88
2022-12-11T00:53:42.291Z,19.87
2022-12-11T01:03:45.470Z,19.87
2022-12-11T01:13:48.605Z,19.87
2022-12-11T01:23:51.788Z,19.88
2022-12-11T01:33:54.920Z,19.86
2022-12-11T01:43:58.103Z,19.84
2022-12-11T01:54:01.245Z,19.86
2022-12-11T02:04:04.445Z,19.84
2022-12-11T02:14:07.587Z,19.83
2022-12-11T02:24:10.775Z,19.84
2022-12-11T02:34:13.911Z,19.80
2022-12-11T02:44:22.901Z,19.80
2022-12-11T02:54:21.057Z,19.80
2022-12-11T03:04:24.200Z,19.79
2022-12-11T03:14:27.398Z,19.78
2022-12-11T03:24:30.542Z,19.78
2022-12-11T03:34:33.726Z,19.78
2022-12-11T03:44:36.864Z,19.78
2022-12-11T03:54:40.047Z,19.75
2022-12-11T04:04:43.190Z,19.75
2022-12-11T04:14:46.372Z,19.75
2022-12-11T04:24:49.507Z,19.73
2022-12-11T04:34:52.697Z,19.72
2022-12-11T04:44:55.841Z,19.72
2022-12-11T04:54:59.032Z,19.72
2022-12-11T05:05:02.180Z,19.72
2022-12-11T05:15:05.451Z,19.70
2022-12-11T05:25:09.118Z,19.70
2022-12-11T05:35:12.894Z,19.70
2022-12-11T05:45:16.218Z,19.68
2022-12-11T05:55:19.405Z,19.68
2022-12-11T06:05:22.552Z,19.68
2022-12-11T06:15:25.743Z,19.68
2022-12-11T06:25:28.892Z,19.65
2022-12-11T06:35:32.961Z,19.65
2022-12-11T06:45:35.775Z,19.65
2022-12-11T06:55:39.156Z,19.61
2022-12-11T07:05:42.293Z,19.61
2022-12-11T07:15:45.489Z,19.65
2022-12-11T07:25:48.632Z,19.63
2022-12-11T07:35:51.986Z,19.61
2022-12-11T07:45:55.240Z,19.58
2022-12-11T07:55:58.482Z,19.58
2022-12-11T08:06:01.625Z,19.58
2022-12-11T08:16:04.812Z,19.57
2022-12-11T08:26:07.955Z,19.57
2022-12-11T08:36:11.147Z,19.55
2022-12-11T08:46:14.333Z,19.55
2022-12-11T08:56:17.536Z,19.55
2022-12-11T09:06:20.699Z,19.53
2022-12-11T09:16:23.884Z,19.54
2022-12-11T09:26:27.026Z,19.53
2022-12-11T09:36:30.206Z,19.53
2022-12-11T09:46:34.368Z,19.51
2022-12-11T09:56:37.661Z,19.51
2022-12-11T10:06:40.797Z,19.51
2022-12-11T10:16:43.986Z,19.48
2022-12-11T10:26:47.116Z,19.48
2022-12-11T10:36:50.297Z,19.50
2022-12-11T10:46:53.459Z,19.48
2022-12-11T10:56:56.617Z,19.47
2022-12-11T11:06:59.799Z,19.47
2022-12-11T11:17:02.970Z,19.47
2022-12-11T11:27:14.004Z,19.47
2022-12-11T11:37:10.077Z,19.47
2022-12-11T11:47:13.226Z,19.46
2022-12-11T11:57:16.411Z,19.42
2022-12-11T12:07:19.543Z,19.43
2022-12-11T12:17:22.785Z,19.43
2022-12-11T12:27:52.159Z,19.42
2022-12-11T12:37:29.907Z,19.40
2022-12-11T12:47:33.049Z,19.42
2022-12-11T12:57:36.230Z,19.40
2022-12-11T13:07:39.360Z,19.40
2022-12-11T13:17:42.544Z,19.40
2022-12-11T13:27:45.699Z,19.39
2022-12-11T13:37:48.886Z,19.40
2022-12-11T13:47:52.031Z,19.38
2022-12-11T13:57:55.234Z,19.36
2022-12-11T14:07:58.440Z,19.36
2022-12-11T14:18:01.624Z,19.36
2022-12-11T14:28:04.769Z,19.38
2022-12-11T14:38:07.956Z,19.35
2022-12-11T14:48:11.095Z,19.35
2022-12-11T14:58:14.272Z,19.33
2022-12-11T15:08:17.483Z,19.33
2022-12-11T15:18:20.675Z,19.33
2022-12-11T15:28:23.826Z,19.33
2022-12-11T15:38:27.016Z,19.32
2022-12-11T15:48:30.164Z,19.31
2022-12-11T15:58:33.341Z,19.31
2022-12-11T16:08:36.485Z,19.31
2022-12-11T16:18:39.673Z,19.31
2022-12-11T16:28:42.825Z,19.29
2022-12-11T16:38:53.779Z,19.29
2022-12-11T16:48:49.973Z,19.28
2022-12-11T16:58:53.107Z,19.29
2022-12-11T17:08:56.267Z,19.28
2022-12-11T17:19:04.831Z,19.28
2022-12-11T17:29:03.414Z,19.25
2022-12-11T17:39:06.578Z,19.28
2022-12-11T17:49:09.781Z,19.24
2022-12-11T17:59:13.032Z,19.24
2022-12-11T18:09:16.163Z,19.23
2022-12-11T18:19:19.361Z,19.25
2022-12-11T18:29:22.498Z,19.23
2022-12-11T18:39:25.685Z,19.21
2022-12-11T18:49:28.820Z,19.21
2022-12-11T18:59:32.000Z,19.21
2022-12-11T19:09:38.069Z,19.21
2022-12-11T19:19:39.416Z,19.21
2022-12-11T19:29:42.547Z,19.18
2022-12-11T19:39:45.736Z,19.21
2022-12-11T19:49:48.911Z,19.20
2022-12-11T19:59:56.923Z,19.21
2022-12-11T20:09:56.044Z,19.18
2022-12-11T20:19:59.177Z,19.18
2022-12-11T20:30:08.341Z,19.18
2022-12-11T20:40:06.304Z,19.18
2022-12-11T20:50:09.440Z,19.17
2022-12-11T21:00:12.634Z,19.15
2022-12-11T21:10:15.770Z,19.18
2022-12-11T21:20:18.953Z,19.17
2022-12-11T21:30:22.095Z,19.15
2022-12-11T21:40:25.310Z,19.13
2022-12-11T21:50:28.442Z,19.14
2022-12-11T22:00:31.636Z,19.14
2022-12-11T22:10:34.769Z,19.15
2022-12-11T22:20:43.929Z,19.13
2022-12-11T22:30:41.929Z,19.14
2022-12-11T22:40:45.092Z,19.14
2022-12-11T22:50:53.430Z,19.13
2022-12-11T23:00:52.245Z,19.13
2022-12-11T23:10:55.387Z,19.13
2022-12-11T23:20:58.565Z,19.13
2022-12-11T23:31:01.781Z,19.13
2022-12-11T23:41:10.984Z,19.10
2022-12-11T23:51:08.959Z,19.08
